sensor_id;sensor_type;location;lat;lon;timestamp;pressure;altitude;pressure_sealevel;temperature;humidity
75594;BME280;64176;49.156;7.810;2023-05-14T00:01:21;99234.41;;;9.47;100.00
75594;BME280;64176;49.156;7.810;2023-05-14T00:04:05;99243.91;;;9.51;100.00
75594;BME280;64176;49.156;7.810;2023-05-14T00:06:49;99235.50;;;9.73;100.00
75594;BME280;64176;49.156;7.810;2023-05-14T00:09:33;99233.69;;;9.62;100.00
75594;BME280;64176;49.156;7.810;2023-05-14T00:12:18;99237.88;;;9.52;100.00
75594;BME280;64176;49.156;7.810;2023-05-14T00:15:02;99240.44;;;9.50;100.00
75594;BME280;64176;49.156;7.810;2023-05-14T00:17:46;99231.84;;;9.50;100.00
75594;BME280;64176;49.156;7.810;2023-05-14T00:20:31;99230.25;;;9.64;100.00
75594;BME280;64176;49.156;7.810;2023-05-14T00:23:15;99230.28;;;9.66;100.00
75594;BME280;64176;49.156;7.810;2023-05-14T00:25:59;99234.69;;;9.79;100.00
75594;BME280;64176;49.156;7.810;2023-05-14T00:28:43;99216.66;;;9.82;100.00
75594;BME280;64176;49.156;7.810;2023-05-14T00:31:27;99230.91;;;9.40;100.00
75594;BME280;64176;49.156;7.810;2023-05-14T00:34:11;99221.72;;;9.68;100.00
75594;BME280;64176;49.156;7.810;2023-05-14T00:36:56;99226.13;;;9.81;100.00
75594;BME280;64176;49.156;7.810;2023-05-14T00:39:42;99228.50;;;9.57;100.00
75594;BME280;64176;49.156;7.810;2023-05-14T00:42:26;99230.59;;;9.10;100.00
75594;BME280;64176;49.156;7.810;2023-05-14T00:45:12;99225.53;;;9.19;100.00
75594;BME280;64176;49.156;7.810;2023-05-14T00:47:57;99232.72;;;9.50;100.00
75594;BME280;64176;49.156;7.810;2023-05-14T00:50:41;99229.44;;;9.67;100.00
75594;BME280;64176;49.156;7.810;2023-05-14T00:53:26;99217.16;;;9.41;100.00
75594;BME280;64176;49.156;7.810;2023-05-14T00:56:10;99218.53;;;9.04;100.00
75594;BME280;64176;49.156;7.810;2023-05-14T00:58:55;99225.53;;;9.16;100.00
75594;BME280;64176;49.156;7.810;2023-05-14T01:01:40;99229.22;;;9.42;100.00
75594;BME280;64176;49.156;7.810;2023-05-14T01:04:24;99229.25;;;9.47;100.00
75594;BME280;64176;49.156;7.810;2023-05-14T01:07:26;99217.84;;;9.22;100.00
75594;BME280;64176;49.156;7.810;2023-05-14T01:10:31;99214.00;;;8.87;100.00
75594;BME280;64176;49.156;7.810;2023-05-14T01:16:11;99219.41;;;9.08;100.00
75594;BME280;64176;49.156;7.810;2023-05-14T01:18:57;99220.28;;;9.10;100.00
75594;BME280;64176;49.156;7.810;2023-05-14T01:21:43;99219.78;;;8.67;100.00
75594;BME280;64176;49.156;7.810;2023-05-14T01:24:26;99220.25;;;9.07;100.00
75594;BME280;64176;49.156;7.810;2023-05-14T01:27:34;99223.78;;;9.18;100.00
75594;BME280;64176;49.156;7.810;2023-05-14T01:33:15;99224.13;;;9.52;100.00
75594;BME280;64176;49.156;7.810;2023-05-14T01:36:01;99217.00;;;9.23;100.00
75594;BME280;64176;49.156;7.810;2023-05-14T01:38:48;99216.81;;;9.05;100.00
75594;BME280;64176;49.156;7.810;2023-05-14T01:41:37;99216.91;;;9.17;100.00
75594;BME280;64176;49.156;7.810;2023-05-14T01:44:27;99209.84;;;8.99;100.00
75594;BME280;64176;49.156;7.810;2023-05-14T01:47:11;99216.72;;;8.99;100.00
75594;BME280;64176;49.156;7.810;2023-05-14T01:49:55;99214.22;;;9.03;100.00
75594;BME280;64176;49.156;7.810;2023-05-14T01:52:42;99215.94;;;9.06;100.00
75594;BME280;64176;49.156;7.810;2023-05-14T01:55:26;99189.94;;;8.86;100.00
75594;BME280;64176;49.156;7.810;2023-05-14T01:58:11;99209.78;;;8.92;100.00
75594;BME280;64176;49.156;7.810;2023-05-14T02:00:55;99210.75;;;9.01;100.00
75594;BME280;64176;49.156;7.810;2023-05-14T02:03:39;99201.56;;;9.26;100.00
75594;BME280;64176;49.156;7.810;2023-05-14T02:06:25;99200.00;;;9.43;100.00
75594;BME280;64176;49.156;7.810;2023-05-14T02:09:09;99199.94;;;9.37;100.00
75594;BME280;64176;49.156;7.810;2023-05-14T02:11:54;99198.13;;;9.26;100.00
75594;BME280;64176;49.156;7.810;2023-05-14T02:14:38;99198.00;;;9.13;100.00
75594;BME280;64176;49.156;7.810;2023-05-14T02:17:24;99201.41;;;9.11;100.00
75594;BME280;64176;49.156;7.810;2023-05-14T02:20:08;99199.63;;;9.04;100.00
75594;BME280;64176;49.156;7.810;2023-05-14T02:22:55;99209.06;;;9.05;100.00
75594;BME280;64176;49.156;7.810;2023-05-14T02:25:39;99209.03;;;9.02;100.00
75594;BME280;64176;49.156;7.810;2023-05-14T02:28:23;99201.22;;;8.96;100.00
75594;BME280;64176;49.156;7.810;2023-05-14T02:31:07;99204.72;;;9.01;100.00
75594;BME280;64176;49.156;7.810;2023-05-14T02:33:51;99198.91;;;9.22;100.00
75594;BME280;64176;49.156;7.810;2023-05-14T02:36:35;99203.34;;;9.35;99.30
75594;BME280;64176;49.156;7.810;2023-05-14T02:39:21;99199.69;;;9.13;99.54
75594;BME280;64176;49.156;7.810;2023-05-14T02:42:05;99203.84;;;9.00;100.00
75594;BME280;64176;49.156;7.810;2023-05-14T02:44:50;99196.19;;;9.05;99.91
75594;BME280;64176;49.156;7.810;2023-05-14T02:47:34;99201.34;;;9.08;100.00
75594;BME280;64176;49.156;7.810;2023-05-14T02:50:19;99193.63;;;9.08;99.76
75594;BME280;64176;49.156;7.810;2023-05-14T02:53:03;99181.88;;;9.37;99.21
75594;BME280;64176;49.156;7.810;2023-05-14T02:55:47;99187.84;;;9.33;99.37
75594;BME280;64176;49.156;7.810;2023-05-14T02:58:33;99192.84;;;9.13;99.95
75594;BME280;64176;49.156;7.810;2023-05-14T03:01:17;99189.75;;;9.49;99.15
75594;BME280;64176;49.156;7.810;2023-05-14T03:04:01;99187.25;;;9.65;98.62
75594;BME280;64176;49.156;7.810;2023-05-14T03:06:46;99189.75;;;9.49;97.93
75594;BME280;64176;49.156;7.810;2023-05-14T03:09:29;99191.25;;;9.26;99.16
75594;BME280;64176;49.156;7.810;2023-05-14T03:12:13;99192.97;;;9.26;99.60
75594;BME280;64176;49.156;7.810;2023-05-14T03:15:00;99188.66;;;9.25;99.38
75594;BME280;64176;49.156;7.810;2023-05-14T03:17:44;99189.53;;;9.28;99.26
75594;BME280;64176;49.156;7.810;2023-05-14T03:20:31;99189.31;;;9.07;100.00
75594;BME280;64176;49.156;7.810;2023-05-14T03:23:14;99183.28;;;9.03;99.82
75594;BME280;64176;49.156;7.810;2023-05-14T03:26:02;99180.63;;;8.97;100.00
75594;BME280;64176;49.156;7.810;2023-05-14T03:28:47;99183.38;;;9.14;99.94
75594;BME280;64176;49.156;7.810;2023-05-14T03:31:34;99179.84;;;9.04;100.00
75594;BME280;64176;49.156;7.810;2023-05-14T03:34:20;99187.47;;;8.97;100.00
75594;BME280;64176;49.156;7.810;2023-05-14T03:37:04;99176.44;;;9.08;100.00
75594;BME280;64176;49.156;7.810;2023-05-14T03:39:48;99187.03;;;9.36;99.92
75594;BME280;64176;49.156;7.810;2023-05-14T03:42:32;99182.03;;;9.56;99.03
75594;BME280;64176;49.156;7.810;2023-05-14T03:45:16;99179.38;;;9.45;98.93
75594;BME280;64176;49.156;7.810;2023-05-14T03:48:00;99176.84;;;9.53;98.67
75594;BME280;64176;49.156;7.810;2023-05-14T03:50:48;99185.34;;;9.38;99.36
75594;BME280;64176;49.156;7.810;2023-05-14T03:53:32;99185.34;;;9.38;99.63
75594;BME280;64176;49.156;7.810;2023-05-14T03:56:16;99175.88;;;9.41;99.39
75594;BME280;64176;49.156;7.810;2023-05-14T03:59:03;99178.38;;;9.31;99.94
75594;BME280;64176;49.156;7.810;2023-05-14T04:01:49;99189.56;;;9.31;100.00
75594;BME280;64176;49.156;7.810;2023-05-14T04:04:33;99189.50;;;9.24;99.96
75594;BME280;64176;49.156;7.810;2023-05-14T04:07:18;99182.53;;;9.15;99.94
75594;BME280;64176;49.156;7.810;2023-05-14T04:10:03;99178.34;;;9.25;99.66
75594;BME280;64176;49.156;7.810;2023-05-14T04:12:48;99175.78;;;9.29;99.64
75594;BME280;64176;49.156;7.810;2023-05-14T04:15:31;99176.69;;;9.34;99.51
75594;BME280;64176;49.156;7.810;2023-05-14T04:18:16;99166.41;;;9.39;99.25
75594;BME280;64176;49.156;7.810;2023-05-14T04:21:03;99168.31;;;9.61;98.71
75594;BME280;64176;49.156;7.810;2023-05-14T04:23:47;99170.16;;;9.76;98.56
75594;BME280;64176;49.156;7.810;2023-05-14T04:26:31;99165.97;;;9.92;97.64
75594;BME280;64176;49.156;7.810;2023-05-14T04:29:15;99184.88;;;9.89;97.57
75594;BME280;64176;49.156;7.810;2023-05-14T04:31:58;99176.28;;;9.95;97.79
75594;BME280;64176;49.156;7.810;2023-05-14T04:34:43;99175.44;;;9.94;97.34
75594;BME280;64176;49.156;7.810;2023-05-14T04:37:27;99182.28;;;9.88;97.82
75594;BME280;64176;49.156;7.810;2023-05-14T04:40:12;99176.97;;;9.68;98.46
75594;BME280;64176;49.156;7.810;2023-05-14T04:42:59;99179.53;;;9.66;98.79
75594;BME280;64176;49.156;7.810;2023-05-14T04:45:43;99177.84;;;9.70;99.35
75594;BME280;64176;49.156;7.810;2023-05-14T04:48:27;99177.16;;;9.92;97.69
75594;BME280;64176;49.156;7.810;2023-05-14T04:51:11;99178.03;;;9.97;96.97
75594;BME280;64176;49.156;7.810;2023-05-14T04:53:55;99172.88;;;9.99;97.25
75594;BME280;64176;49.156;7.810;2023-05-14T04:56:39;99179.88;;;10.15;97.17
75594;BME280;64176;49.156;7.810;2023-05-14T04:59:23;99185.88;;;10.12;96.77
75594;BME280;64176;49.156;7.810;2023-05-14T05:02:08;99180.50;;;9.79;97.97
75594;BME280;64176;49.156;7.810;2023-05-14T05:04:52;99189.06;;;9.72;97.90
75594;BME280;64176;49.156;7.810;2023-05-14T05:07:36;99174.38;;;9.66;97.91
75594;BME280;64176;49.156;7.810;2023-05-14T05:10:20;99189.06;;;9.72;98.35
75594;BME280;64176;49.156;7.810;2023-05-14T05:13:04;99183.06;;;9.76;97.91
75594;BME280;64176;49.156;7.810;2023-05-14T05:15:48;99177.81;;;9.67;99.05
75594;BME280;64176;49.156;7.810;2023-05-14T05:18:32;99190.00;;;9.86;97.77
75594;BME280;64176;49.156;7.810;2023-05-14T05:21:16;99192.00;;;10.20;97.02
75594;BME280;64176;49.156;7.810;2023-05-14T05:24:00;99192.00;;;10.24;96.31
75594;BME280;64176;49.156;7.810;2023-05-14T05:26:44;99186.91;;;10.39;96.53
75594;BME280;64176;49.156;7.810;2023-05-14T05:29:28;99192.16;;;10.54;95.27
75594;BME280;64176;49.156;7.810;2023-05-14T05:32:12;99172.19;;;10.19;95.96
75594;BME280;64176;49.156;7.810;2023-05-14T05:34:56;99188.66;;;10.37;96.27
75594;BME280;64176;49.156;7.810;2023-05-14T05:37:41;99183.53;;;10.52;95.93
75594;BME280;64176;49.156;7.810;2023-05-14T05:40:28;99189.63;;;10.66;95.32
75594;BME280;64176;49.156;7.810;2023-05-14T05:43:14;99175.03;;;10.77;94.54
75594;BME280;64176;49.156;7.810;2023-05-14T05:45:59;99194.81;;;10.72;94.66
75594;BME280;64176;49.156;7.810;2023-05-14T05:48:46;99192.22;;;10.66;95.37
75594;BME280;64176;49.156;7.810;2023-05-14T05:51:30;99185.38;;;10.79;94.91
75594;BME280;64176;49.156;7.810;2023-05-14T05:54:14;99182.84;;;10.91;94.27
75594;BME280;64176;49.156;7.810;2023-05-14T05:56:59;99180.28;;;11.02;93.96
75594;BME280;64176;49.156;7.810;2023-05-14T05:59:43;99196.50;;;10.63;95.31
75594;BME280;64176;49.156;7.810;2023-05-14T06:02:27;99192.22;;;10.60;96.17
75594;BME280;64176;49.156;7.810;2023-05-14T06:05:11;99195.66;;;10.65;95.62
75594;BME280;64176;49.156;7.810;2023-05-14T06:07:55;99199.16;;;10.78;95.57
75594;BME280;64176;49.156;7.810;2023-05-14T06:10:39;99191.50;;;11.04;94.37
75594;BME280;64176;49.156;7.810;2023-05-14T06:13:23;99177.66;;;10.92;94.62
75594;BME280;64176;49.156;7.810;2023-05-14T06:16:08;99194.91;;;11.00;95.18
75594;BME280;64176;49.156;7.810;2023-05-14T06:18:53;99191.47;;;10.93;95.11
75594;BME280;64176;49.156;7.810;2023-05-14T06:21:38;99192.31;;;10.97;96.48
75594;BME280;64176;49.156;7.810;2023-05-14T06:24:22;99195.78;;;11.05;96.66
75594;BME280;64176;49.156;7.810;2023-05-14T06:27:06;99177.69;;;11.09;96.30
75594;BME280;64176;49.156;7.810;2023-05-14T06:29:53;99186.34;;;11.32;95.31
75594;BME280;64176;49.156;7.810;2023-05-14T06:32:37;99188.09;;;11.53;94.49
75594;BME280;64176;49.156;7.810;2023-05-14T06:35:22;99186.34;;;11.32;95.54
75594;BME280;64176;49.156;7.810;2023-05-14T06:38:06;99188.94;;;11.22;96.75
75594;BME280;64176;49.156;7.810;2023-05-14T06:40:50;99183.75;;;11.39;96.31
75594;BME280;64176;49.156;7.810;2023-05-14T06:43:35;99187.22;;;11.60;95.39
75594;BME280;64176;49.156;7.810;2023-05-14T06:46:20;99180.31;;;11.73;94.82
75594;BME280;64176;49.156;7.810;2023-05-14T06:49:04;99190.72;;;11.81;94.61
75594;BME280;64176;49.156;7.810;2023-05-14T06:51:48;99186.41;;;11.77;94.43
75594;BME280;64176;49.156;7.810;2023-05-14T06:54:32;99187.25;;;11.85;94.07
75594;BME280;64176;49.156;7.810;2023-05-14T06:57:16;99180.38;;;11.91;93.68
75594;BME280;64176;49.156;7.810;2023-05-14T07:00:00;99170.88;;;11.90;93.75
75594;BME280;64176;49.156;7.810;2023-05-14T07:02:44;99181.22;;;11.98;93.89
75594;BME280;64176;49.156;7.810;2023-05-14T07:05:28;99170.84;;;11.95;93.88
75594;BME280;64176;49.156;7.810;2023-05-14T07:08:12;99174.28;;;12.09;93.04
75594;BME280;64176;49.156;7.810;2023-05-14T07:10:56;99183.78;;;12.06;93.68
75594;BME280;64176;49.156;7.810;2023-05-14T07:13:41;99174.28;;;12.11;93.58
75594;BME280;64176;49.156;7.810;2023-05-14T07:16:28;99179.44;;;12.15;94.55
75594;BME280;64176;49.156;7.810;2023-05-14T07:19:12;99174.25;;;12.17;93.61
75594;BME280;64176;49.156;7.810;2023-05-14T07:21:56;99181.19;;;12.13;93.88
75594;BME280;64176;49.156;7.810;2023-05-14T07:24:40;99171.66;;;12.24;93.19
75594;BME280;64176;49.156;7.810;2023-05-14T07:27:24;99169.00;;;12.46;91.89
75594;BME280;64176;49.156;7.810;2023-05-14T07:30:13;99165.47;;;12.63;90.53
75594;BME280;64176;49.156;7.810;2023-05-14T07:32:58;99169.75;;;12.70;90.68
75594;BME280;64176;49.156;7.810;2023-05-14T07:35:42;99158.38;;;12.94;89.54
75594;BME280;64176;49.156;7.810;2023-05-14T07:38:26;99141.84;;;13.13;87.43
75594;BME280;64176;49.156;7.810;2023-05-14T07:41:10;99152.22;;;13.17;87.13
75594;BME280;64176;49.156;7.810;2023-05-14T07:43:55;99153.81;;;13.37;85.52
75594;BME280;64176;49.156;7.810;2023-05-14T07:46:41;99143.38;;;13.45;83.67
75594;BME280;64176;49.156;7.810;2023-05-14T07:49:28;99134.75;;;13.41;84.07
75594;BME280;64176;49.156;7.810;2023-05-14T07:52:12;99144.97;;;13.63;82.28
75594;BME280;64176;49.156;7.810;2023-05-14T07:54:56;99136.31;;;13.62;82.04
75594;BME280;64176;49.156;7.810;2023-05-14T07:57:40;99126.78;;;13.63;81.45
75594;BME280;64176;49.156;7.810;2023-05-14T08:00:24;99130.13;;;13.78;80.86
75594;BME280;64176;49.156;7.810;2023-05-14T08:03:08;99121.75;;;14.30;78.99
75594;BME280;64176;49.156;7.810;2023-05-14T08:05:52;99116.34;;;14.48;77.23
75594;BME280;64176;49.156;7.810;2023-05-14T08:08:36;99118.63;;;14.74;75.27
75594;BME280;64176;49.156;7.810;2023-05-14T08:11:20;99117.06;;;14.61;73.65
75594;BME280;64176;49.156;7.810;2023-05-14T08:14:05;99121.50;;;14.54;73.55
75594;BME280;64176;49.156;7.810;2023-05-14T08:16:52;99118.88;;;15.17;71.60
75594;BME280;64176;49.156;7.810;2023-05-14T08:19:36;99113.69;;;15.14;70.70
75594;BME280;64176;49.156;7.810;2023-05-14T08:22:20;99111.47;;;14.90;71.50
75594;BME280;64176;49.156;7.810;2023-05-14T08:25:04;99109.78;;;14.86;69.56
75594;BME280;64176;49.156;7.810;2023-05-14T08:27:49;99112.59;;;14.69;70.93
75594;BME280;64176;49.156;7.810;2023-05-14T08:30:33;99104.41;;;15.55;68.52
75594;BME280;64176;49.156;7.810;2023-05-14T08:33:17;99098.72;;;15.81;67.95
75594;BME280;64176;49.156;7.810;2023-05-14T08:36:01;99098.28;;;16.05;66.06
75594;BME280;64176;49.156;7.810;2023-05-14T08:38:47;99100.44;;;15.82;67.08
75594;BME280;64176;49.156;7.810;2023-05-14T08:41:33;99100.91;;;16.02;66.47
75594;BME280;64176;49.156;7.810;2023-05-14T08:44:22;99100.34;;;16.32;62.30
75594;BME280;64176;49.156;7.810;2023-05-14T08:47:17;99094.16;;;15.93;65.34
75594;BME280;64176;49.156;7.810;2023-05-14T08:50:05;99087.59;;;15.73;65.94
75594;BME280;64176;49.156;7.810;2023-05-14T08:52:52;99089.16;;;16.26;65.54
75594;BME280;64176;49.156;7.810;2023-05-14T08:55:37;99087.94;;;16.44;63.89
75594;BME280;64176;49.156;7.810;2023-05-14T08:58:21;99073.63;;;16.63;63.19
75594;BME280;64176;49.156;7.810;2023-05-14T09:01:05;99076.50;;;16.49;63.51
75594;BME280;64176;49.156;7.810;2023-05-14T09:03:53;99074.50;;;16.63;61.41
75594;BME280;64176;49.156;7.810;2023-05-14T09:06:37;99077.16;;;16.59;62.81
75594;BME280;64176;49.156;7.810;2023-05-14T09:09:23;99065.31;;;16.46;62.15
75594;BME280;64176;49.156;7.810;2023-05-14T09:12:12;99067.38;;;16.28;61.09
75594;BME280;64176;49.156;7.810;2023-05-14T09:14:56;99063.06;;;16.69;60.70
75594;BME280;64176;49.156;7.810;2023-05-14T09:17:40;99068.19;;;16.73;59.78
75594;BME280;64176;49.156;7.810;2023-05-14T09:20:27;99066.06;;;16.49;59.60
75594;BME280;64176;49.156;7.810;2023-05-14T09:23:11;99061.19;;;16.34;59.69
75594;BME280;64176;49.156;7.810;2023-05-14T09:25:55;99054.00;;;16.85;58.22
75594;BME280;64176;49.156;7.810;2023-05-14T09:28:40;99065.31;;;16.86;57.58
75594;BME280;64176;49.156;7.810;2023-05-14T09:31:32;99065.03;;;16.98;57.81
75594;BME280;64176;49.156;7.810;2023-05-14T09:34:34;99060.78;;;16.92;57.32
75594;BME280;64176;49.156;7.810;2023-05-14T09:37:21;99060.88;;;16.89;56.74
75594;BME280;64176;49.156;7.810;2023-05-14T09:40:06;99053.16;;;17.20;56.69
75594;BME280;64176;49.156;7.810;2023-05-14T09:42:51;99051.16;;;17.31;57.37
75594;BME280;64176;49.156;7.810;2023-05-14T09:45:36;99052.63;;;17.75;56.39
75594;BME280;64176;49.156;7.810;2023-05-14T09:48:20;99065.34;;;17.55;55.63
75594;BME280;64176;49.156;7.810;2023-05-14T09:51:05;99052.22;;;17.57;54.87
75594;BME280;64176;49.156;7.810;2023-05-14T09:53:51;99045.50;;;17.46;55.06
75594;BME280;64176;49.156;7.810;2023-05-14T09:56:36;99044.06;;;17.01;54.49
75594;BME280;64176;49.156;7.810;2023-05-14T09:59:20;99041.09;;;17.48;54.89
75594;BME280;64176;49.156;7.810;2023-05-14T10:02:06;99033.75;;;17.66;54.50
75594;BME280;64176;49.156;7.810;2023-05-14T10:05:01;99036.03;;;17.78;52.33
75594;BME280;64176;49.156;7.810;2023-05-14T10:07:50;99031.22;;;17.27;52.25
75594;BME280;64176;49.156;7.810;2023-05-14T10:10:36;99043.88;;;16.71;51.08
75594;BME280;64176;49.156;7.810;2023-05-14T10:13:22;99043.69;;;17.50;51.03
75594;BME280;64176;49.156;7.810;2023-05-14T10:16:17;99043.97;;;17.73;50.52
75594;BME280;64176;49.156;7.810;2023-05-14T10:19:07;99027.81;;;17.90;49.95
75594;BME280;64176;49.156;7.810;2023-05-14T10:21:56;99022.94;;;18.09;49.73
75594;BME280;64176;49.156;7.810;2023-05-14T10:24:44;99038.03;;;17.99;50.50
75594;BME280;64176;49.156;7.810;2023-05-14T10:27:30;99027.50;;;18.32;49.97
75594;BME280;64176;49.156;7.810;2023-05-14T10:30:14;99026.06;;;18.51;48.98
75594;BME280;64176;49.156;7.810;2023-05-14T10:35:54;99018.81;;;18.61;48.71
75594;BME280;64176;49.156;7.810;2023-05-14T10:38:39;99025.38;;;18.15;49.07
75594;BME280;64176;49.156;7.810;2023-05-14T10:41:23;99022.78;;;18.13;50.79
75594;BME280;64176;49.156;7.810;2023-05-14T10:44:07;99025.72;;;18.03;51.29
75594;BME280;64176;49.156;7.810;2023-05-14T10:46:53;99026.09;;;17.57;52.89
75594;BME280;64176;49.156;7.810;2023-05-14T10:49:40;99020.72;;;17.29;52.78
75594;BME280;64176;49.156;7.810;2023-05-14T10:52:25;99025.00;;;17.33;52.19
75594;BME280;64176;49.156;7.810;2023-05-14T10:55:12;99015.50;;;17.29;51.95
75594;BME280;64176;49.156;7.810;2023-05-14T10:58:03;99023.44;;;17.24;51.92
75594;BME280;64176;49.156;7.810;2023-05-14T11:00:53;99031.22;;;17.27;53.10
75594;BME280;64176;49.156;7.810;2023-05-14T11:03:39;99025.13;;;16.91;52.89
75594;BME280;64176;49.156;7.810;2023-05-14T11:06:25;99006.19;;;17.19;53.35
75594;BME280;64176;49.156;7.810;2023-05-14T11:09:11;99022.97;;;17.08;53.10
75594;BME280;64176;49.156;7.810;2023-05-14T11:11:56;99017.19;;;17.31;52.13
75594;BME280;64176;49.156;7.810;2023-05-14T11:14:42;99014.25;;;17.43;52.11
75594;BME280;64176;49.156;7.810;2023-05-14T11:17:27;99009.72;;;18.43;52.10
75594;BME280;64176;49.156;7.810;2023-05-14T11:20:15;99002.63;;;18.46;51.04
75594;BME280;64176;49.156;7.810;2023-05-14T11:23:01;99006.88;;;18.50;49.50
75594;BME280;64176;49.156;7.810;2023-05-14T11:25:46;98997.50;;;18.14;49.35
75594;BME280;64176;49.156;7.810;2023-05-14T11:28:30;99000.00;;;18.46;50.25
75594;BME280;64176;49.156;7.810;2023-05-14T11:31:14;98992.06;;;19.32;47.84
75594;BME280;64176;49.156;7.810;2023-05-14T11:33:59;98996.53;;;19.54;47.71
75594;BME280;64176;49.156;7.810;2023-05-14T11:36:46;98990.44;;;19.54;47.71
75594;BME280;64176;49.156;7.810;2023-05-14T11:39:33;98986.06;;;19.28;48.30
75594;BME280;64176;49.156;7.810;2023-05-14T11:42:19;98991.66;;;18.91;49.60
75594;BME280;64176;49.156;7.810;2023-05-14T11:45:04;98975.78;;;18.69;49.68
75594;BME280;64176;49.156;7.810;2023-05-14T11:47:48;98976.25;;;19.08;49.53
75594;BME280;64176;49.156;7.810;2023-05-14T11:50:35;98983.28;;;18.80;48.80
75594;BME280;64176;49.156;7.810;2023-05-14T11:53:27;98979.84;;;18.78;48.83
75594;BME280;64176;49.156;7.810;2023-05-14T11:56:13;98975.47;;;18.78;48.94
75594;BME280;64176;49.156;7.810;2023-05-14T11:58:57;98970.53;;;19.22;47.20
75594;BME280;64176;49.156;7.810;2023-05-14T12:01:43;98971.47;;;18.95;49.67
75594;BME280;64176;49.156;7.810;2023-05-14T12:04:28;98970.84;;;19.13;49.53
75594;BME280;64176;49.156;7.810;2023-05-14T12:07:14;98972.84;;;19.31;48.58
75594;BME280;64176;49.156;7.810;2023-05-14T12:10:00;98964.38;;;19.49;48.54
75594;BME280;64176;49.156;7.810;2023-05-14T12:12:46;98970.50;;;18.71;48.50
75594;BME280;64176;49.156;7.810;2023-05-14T12:15:31;98968.16;;;18.62;49.18
75594;BME280;64176;49.156;7.810;2023-05-14T12:18:16;98959.19;;;19.46;49.08
75594;BME280;64176;49.156;7.810;2023-05-14T12:21:04;98945.91;;;19.52;47.95
75594;BME280;64176;49.156;7.810;2023-05-14T12:23:57;98948.75;;;18.95;47.62
75594;BME280;64176;49.156;7.810;2023-05-14T12:26:49;98950.28;;;18.46;47.49
75594;BME280;64176;49.156;7.810;2023-05-14T12:29:37;98946.06;;;18.70;47.09
75594;BME280;64176;49.156;7.810;2023-05-14T12:32:24;98944.00;;;19.06;48.46
75594;BME280;64176;49.156;7.810;2023-05-14T12:35:08;98933.88;;;18.96;47.21
75594;BME280;64176;49.156;7.810;2023-05-14T12:37:52;98950.41;;;18.71;47.23
75594;BME280;64176;49.156;7.810;2023-05-14T12:40:36;98954.25;;;18.32;48.58
75594;BME280;64176;49.156;7.810;2023-05-14T12:43:22;98955.03;;;18.63;47.84
75594;BME280;64176;49.156;7.810;2023-05-14T12:46:07;98934.28;;;18.29;49.52
75594;BME280;64176;49.156;7.810;2023-05-14T12:48:50;98936.56;;;18.40;49.15
75594;BME280;64176;49.156;7.810;2023-05-14T12:51:37;98934.22;;;19.11;47.77
75594;BME280;64176;49.156;7.810;2023-05-14T12:54:24;98935.66;;;18.95;48.56
75594;BME280;64176;49.156;7.810;2023-05-14T12:57:08;98926.66;;;18.49;49.25
75594;BME280;64176;49.156;7.810;2023-05-14T12:59:53;98930.25;;;18.45;48.94
75594;BME280;64176;49.156;7.810;2023-05-14T13:02:38;98920.13;;;18.35;48.09
75594;BME280;64176;49.156;7.810;2023-05-14T13:05:22;98926.00;;;17.86;48.22
75594;BME280;64176;49.156;7.810;2023-05-14T13:08:07;98921.34;;;18.23;47.79
75594;BME280;64176;49.156;7.810;2023-05-14T13:10:55;98911.66;;;18.54;47.92
75594;BME280;64176;49.156;7.810;2023-05-14T13:13:39;98907.75;;;18.40;47.19
75594;BME280;64176;49.156;7.810;2023-05-14T13:16:25;98885.00;;;18.96;46.92
75594;BME280;64176;49.156;7.810;2023-05-14T13:19:09;98888.56;;;18.94;46.57
75594;BME280;64176;49.156;7.810;2023-05-14T13:21:55;98893.13;;;18.88;47.00
75594;BME280;64176;49.156;7.810;2023-05-14T13:24:42;98900.06;;;18.35;48.47
75594;BME280;64176;49.156;7.810;2023-05-14T13:27:30;98898.75;;;18.48;49.00
75594;BME280;64176;49.156;7.810;2023-05-14T13:30:15;98895.53;;;17.85;44.43
75594;BME280;64176;49.156;7.810;2023-05-14T13:33:00;98893.34;;;18.27;46.29
75594;BME280;64176;49.156;7.810;2023-05-14T13:35:44;98892.06;;;18.40;47.04
75594;BME280;64176;49.156;7.810;2023-05-14T13:38:29;98878.81;;;18.72;46.49
75594;BME280;64176;49.156;7.810;2023-05-14T13:41:13;98886.28;;;18.56;44.78
75594;BME280;64176;49.156;7.810;2023-05-14T13:43:58;98885.78;;;18.17;44.24
75594;BME280;64176;49.156;7.810;2023-05-14T13:46:42;98875.38;;;18.70;43.80
75594;BME280;64176;49.156;7.810;2023-05-14T13:49:27;98852.03;;;19.14;42.82
75594;BME280;64176;49.156;7.810;2023-05-14T13:52:13;98865.84;;;19.19;43.27
75594;BME280;64176;49.156;7.810;2023-05-14T13:54:57;98859.75;;;18.94;44.45
75594;BME280;64176;49.156;7.810;2023-05-14T13:57:41;98853.22;;;18.54;44.26
75594;BME280;64176;49.156;7.810;2023-05-14T14:00:25;98855.75;;;18.83;44.64
75594;BME280;64176;49.156;7.810;2023-05-14T14:03:10;98851.50;;;18.53;45.13
75594;BME280;64176;49.156;7.810;2023-05-14T14:05:54;98840.84;;;18.85;45.30
75594;BME280;64176;49.156;7.810;2023-05-14T14:08:38;98834.84;;;19.07;44.05
75594;BME280;64176;49.156;7.810;2023-05-14T14:11:22;98840.53;;;18.68;44.22
75594;BME280;64176;49.156;7.810;2023-05-14T14:14:06;98846.72;;;18.92;42.89
75594;BME280;64176;49.156;7.810;2023-05-14T14:16:50;98828.69;;;18.83;43.80
75594;BME280;64176;49.156;7.810;2023-05-14T14:19:34;98824.81;;;19.43;43.83
75594;BME280;64176;49.156;7.810;2023-05-14T14:22:18;98825.19;;;19.55;42.22
75594;BME280;64176;49.156;7.810;2023-05-14T14:25:05;98842.75;;;18.80;42.86
75594;BME280;64176;49.156;7.810;2023-05-14T14:27:53;98834.75;;;19.33;43.31
75594;BME280;64176;49.156;7.810;2023-05-14T14:30:37;98834.44;;;19.42;42.43
75594;BME280;64176;49.156;7.810;2023-05-14T14:33:21;98825.19;;;19.09;42.73
75594;BME280;64176;49.156;7.810;2023-05-14T14:36:05;98834.50;;;19.16;43.22
75594;BME280;64176;49.156;7.810;2023-05-14T14:38:50;98824.53;;;19.50;42.90
75594;BME280;64176;49.156;7.810;2023-05-14T14:41:37;98825.47;;;19.48;42.32
75594;BME280;64176;49.156;7.810;2023-05-14T14:44:21;98825.06;;;18.62;44.18
75594;BME280;64176;49.156;7.810;2023-05-14T14:47:05;98817.84;;;19.18;42.84